createdAt,value
2019-03-04T00:01:02.362Z,62.77
2019-03-04T00:03:50.096Z,57.23
2019-03-04T00:06:31.570Z,58.43
2019-03-04T00:09:14.209Z,59.23
2019-03-04T00:11:55.411Z,60.17
2019-03-04T00:14:36.705Z,57.27
2019-03-04T00:17:18.394Z,56.63
2019-03-04T00:19:59.206Z,55.13
2019-03-04T00:22:40.251Z,55.50
2019-03-04T00:25:23.536Z,56.67
2019-03-04T00:28:03.522Z,58.63
2019-03-04T00:30:43.006Z,58.50
2019-03-04T00:33:23.274Z,57.67
2019-03-04T00:36:05.606Z,57.13
2019-03-04T00:38:48.257Z,57.57
2019-03-04T00:41:28.551Z,58.17
2019-03-04T00:44:09.977Z,58.93
2019-03-04T00:46:51.609Z,52.63
2019-03-04T00:49:32.167Z,51.00
2019-03-04T00:52:12.087Z,54.00
2019-03-04T00:54:56.960Z,56.40
2019-03-04T00:57:39.314Z,57.33
2019-03-04T01:00:21.247Z,54.37
2019-03-04T01:03:06.740Z,56.03
2019-03-04T01:05:47.078Z,57.03
2019-03-04T01:08:30.211Z,58.37
2019-03-04T01:11:13.186Z,56.90
2019-03-04T01:13:54.995Z,56.37
2019-03-04T01:16:36.223Z,54.00
2019-03-04T01:19:17.745Z,52.10
2019-03-04T01:22:03.894Z,55.27
2019-03-04T01:24:45.206Z,55.40
2019-03-04T01:27:27.491Z,53.73
2019-03-04T01:30:08.670Z,54.03
2019-03-04T01:32:51.407Z,54.70
2019-03-04T01:35:36.631Z,55.87
2019-03-04T01:38:14.866Z,53.50
2019-03-04T01:41:00.750Z,50.77
2019-03-04T01:43:40.023Z,54.03
2019-03-04T01:46:26.475Z,51.40
2019-03-04T01:49:07.901Z,55.33
2019-03-04T01:51:51.280Z,55.67
2019-03-04T01:54:31.794Z,54.53
2019-03-04T01:57:14.013Z,51.60
2019-03-04T01:59:56.468Z,53.37
2019-03-04T02:02:38.717Z,51.37
2019-03-04T02:05:20.367Z,48.77
2019-03-04T02:08:00.329Z,50.13
2019-03-04T02:10:44.357Z,50.10
2019-03-04T02:13:25.427Z,49.73
2019-03-04T02:16:07.122Z,51.00
2019-03-04T02:18:49.467Z,48.67
2019-03-04T02:21:32.099Z,46.83
2019-03-04T02:24:34.187Z,48.10
2019-03-04T02:27:13.669Z,46.37
2019-03-04T02:29:53.576Z,48.53
2019-03-04T02:32:32.717Z,43.43
2019-03-04T02:35:13.076Z,43.77
2019-03-04T02:37:57.467Z,40.40
2019-03-04T02:40:41.455Z,39.67
2019-03-04T02:43:23.424Z,39.70
2019-03-04T02:46:06.324Z,41.00
2019-03-04T02:48:46.635Z,40.13
2019-03-04T02:51:25.844Z,42.17
2019-03-04T02:54:08.783Z,41.23
2019-03-04T02:56:51.905Z,40.73
2019-03-04T02:59:34.687Z,41.53
2019-03-04T03:02:14.600Z,40.43
2019-03-04T03:05:00.476Z,40.97
2019-03-04T03:07:44.123Z,41.37
2019-03-04T03:10:32.419Z,44.70
2019-03-04T03:13:05.493Z,39.90
2019-03-04T03:15:46.083Z,41.73
2019-03-04T03:18:27.851Z,40.73
2019-03-04T03:21:10.361Z,44.77
2019-03-04T03:23:51.586Z,42.23
2019-03-04T03:26:36.897Z,52.27
2019-03-04T03:29:15.002Z,61.33
2019-03-04T03:31:53.582Z,78.13
2019-03-04T03:34:34.903Z,59.57
2019-03-04T03:37:15.273Z,45.33
2019-03-04T03:39:56.765Z,43.50
2019-03-04T03:42:36.513Z,41.77
2019-03-04T03:45:17.504Z,50.63
2019-03-04T03:48:00.149Z,47.27
2019-03-04T03:50:41.864Z,53.37
2019-03-04T03:53:24.778Z,56.40
2019-03-04T03:56:13.639Z,48.37
2019-03-04T03:58:58.190Z,47.43
2019-03-04T04:01:39.084Z,46.07
2019-03-04T04:04:21.560Z,47.40
2019-03-04T04:07:03.493Z,251.87
2019-03-04T04:09:49.979Z,113.77
2019-03-04T04:12:30.949Z,61.63
2019-03-04T04:15:13.071Z,76.87
2019-03-04T04:17:52.832Z,51.73
2019-03-04T04:20:39.458Z,61.23
2019-03-04T04:23:19.575Z,45.77
2019-03-04T04:26:23.482Z,53.80
2019-03-04T04:29:17.588Z,51.47
2019-03-04T04:32:03.360Z,52.77
2019-03-04T04:34:52.199Z,40.93
2019-03-04T04:37:35.210Z,50.67
2019-03-04T04:40:15.491Z,51.00
2019-03-04T04:43:08.479Z,47.67
2019-03-04T04:45:50.579Z,58.63
2019-03-04T04:48:35.635Z,41.70
2019-03-04T04:51:42.251Z,66.93
2019-03-04T04:54:33.022Z,53.07
2019-03-04T04:57:28.334Z,53.47
2019-03-04T05:00:17.955Z,44.67
2019-03-04T05:03:02.906Z,34.77
2019-03-04T05:05:48.621Z,35.70
2019-03-04T05:08:30.761Z,46.53
2019-03-04T05:11:28.176Z,38.30
2019-03-04T05:14:12.268Z,39.43
2019-03-04T05:16:58.635Z,35.83
2019-03-04T05:19:49.981Z,35.47
2019-03-04T05:22:36.946Z,34.83
2019-03-04T05:25:19.821Z,33.87
2019-03-04T05:28:04.927Z,40.20
2019-03-04T05:31:06.558Z,37.47
2019-03-04T05:33:54.945Z,41.30
2019-03-04T05:36:35.319Z,36.20
2019-03-04T05:39:18.155Z,32.40
2019-03-04T05:42:07.157Z,30.27
2019-03-04T05:44:53.986Z,32.33
2019-03-04T05:47:49.718Z,28.50
2019-03-04T05:50:34.550Z,26.40
2019-03-04T05:53:28.194Z,29.77
2019-03-04T05:56:11.596Z,27.10
2019-03-04T05:58:53.227Z,28.17
2019-03-04T06:01:42.018Z,27.30
2019-03-04T06:04:27.263Z,29.07
2019-03-04T06:07:22.087Z,36.93
2019-03-04T06:10:02.214Z,35.13
2019-03-04T06:12:52.187Z,31.10
2019-03-04T06:15:40.838Z,28.13
2019-03-04T06:18:26.258Z,26.77
2019-03-04T06:21:10.719Z,34.83
2019-03-04T06:23:52.685Z,32.47
2019-03-04T06:26:40.084Z,29.97
2019-03-04T06:29:31.684Z,28.10
2019-03-04T06:32:23.403Z,26.03
2019-03-04T06:35:17.259Z,24.90
2019-03-04T06:38:01.394Z,25.47
2019-03-04T06:40:52.930Z,28.67
2019-03-04T06:43:37.491Z,24.83
2019-03-04T06:46:19.956Z,26.37
2019-03-04T06:49:09.004Z,28.70
2019-03-04T06:52:00.582Z,25.23
2019-03-04T06:55:06.155Z,25.67
2019-03-04T06:57:52.320Z,25.83
2019-03-04T07:00:52.105Z,24.57
2019-03-04T07:03:46.425Z,25.10
2019-03-04T07:06:28.948Z,27.07
2019-03-04T07:09:24.946Z,27.17
2019-03-04T07:12:06.700Z,24.77
2019-03-04T07:14:53.897Z,24.33
2019-03-04T07:17:35.292Z,23.67
2019-03-04T07:20:30.653Z,26.27
2019-03-04T07:23:21.016Z,24.60
2019-03-04T07:26:00.777Z,25.73
2019-03-04T07:28:45.696Z,24.90
2019-03-04T07:31:29.692Z,26.20
2019-03-04T07:34:11.784Z,24.83
2019-03-04T07:37:01.039Z,24.63
2019-03-04T07:39:43.468Z,27.83
2019-03-04T07:42:26.758Z,30.67
2019-03-04T07:45:16.787Z,28.83
2019-03-04T07:48:11.257Z,25.80
2019-03-04T07:50:52.114Z,30.07
2019-03-04T07:53:45.992Z,31.23
2019-03-04T07:56:19.754Z,28.33
2019-03-04T07:58:59.775Z,26.20
2019-03-04T08:01:42.405Z,25.60
2019-03-04T08:04:28.382Z,27.43
2019-03-04T08:07:45.379Z,29.33
2019-03-04T08:11:03.876Z,36.03
2019-03-04T08:13:46.415Z,27.33
2019-03-04T08:16:24.359Z,25.93
2019-03-04T08:19:08.460Z,26.03
2019-03-04T08:21:52.852Z,27.00
2019-03-04T08:24:42.492Z,26.93
2019-03-04T08:27:32.186Z,28.37
2019-03-04T08:30:12.880Z,28.93
2019-03-04T08:32:52.891Z,26.23
2019-03-04T08:35:38.833Z,31.63
2019-03-04T08:38:22.554Z,38.93
2019-03-04T08:41:06.955Z,28.03
2019-03-04T08:43:49.178Z,26.03
2019-03-04T08:46:28.847Z,23.73
2019-03-04T08:49:17.582Z,26.60
2019-03-04T08:51:57.766Z,24.83
2019-03-04T08:54:39.934Z,24.93
2019-03-04T08:57:18.992Z,27.97
2019-03-04T09:00:00.887Z,25.83
2019-03-04T09:02:41.891Z,26.40
2019-03-04T09:05:29.640Z,24.63
2019-03-04T09:08:12.395Z,25.20
2019-03-04T09:10:57.060Z,44.93
2019-03-04T09:13:38.591Z,40.30
2019-03-04T09:16:17.450Z,31.40
2019-03-04T09:19:00.341Z,29.73
2019-03-04T09:21:45.609Z,31.37
2019-03-04T09:24:26.409Z,30.43
2019-03-04T09:27:08.490Z,26.83
2019-03-04T09:29:48.104Z,27.47
2019-03-04T09:32:29.250Z,26.27
2019-03-04T09:35:17.854Z,28.30
2019-03-04T09:38:08.405Z,25.70
2019-03-04T09:40:49.538Z,25.50
2019-03-04T09:43:34.177Z,23.37
2019-03-04T09:46:16.243Z,23.93
2019-03-04T09:48:57.323Z,22.97
2019-03-04T09:51:37.321Z,36.20
2019-03-04T09:54:17.771Z,39.87
2019-03-04T09:57:01.012Z,35.93
2019-03-04T09:59:46.984Z,35.47
2019-03-04T10:02:40.022Z,33.60
2019-03-04T10:05:42.986Z,32.37
2019-03-04T10:08:34.025Z,29.40
2019-03-04T10:11:54.662Z,25.53
2019-03-04T10:15:09.829Z,23.87
2019-03-04T10:18:07.768Z,27.03
2019-03-04T10:21:25.774Z,24.67
2019-03-04T10:24:41.910Z,28.57
2019-03-04T10:28:12.634Z,33.53
2019-03-04T10:31:21.319Z,26.43
2019-03-04T10:34:18.852Z,28.67
2019-03-04T10:37:31.524Z,26.80
2019-03-04T10:40:29.394Z,25.77
2019-03-04T10:43:59.272Z,26.77
2019-03-04T10:47:03.025Z,26.10
2019-03-04T10:49:46.227Z,28.53
2019-03-04T10:52:29.567Z,28.27
2019-03-04T10:55:16.242Z,29.47
2019-03-04T10:58:00.344Z,28.33
2019-03-04T11:00:44.865Z,27.97
2019-03-04T11:03:30.618Z,28.10
2019-03-04T11:06:14.814Z,34.53
2019-03-04T11:09:02.995Z,30.50
2019-03-04T11:11:58.802Z,32.03
2019-03-04T11:14:44.311Z,29.23
2019-03-04T11:17:28.874Z,32.50
2019-03-04T11:20:17.535Z,31.50
2019-03-04T11:23:00.225Z,33.57
2019-03-04T11:25:44.972Z,36.10
2019-03-04T11:28:49.260Z,36.63
2019-03-04T11:31:36.177Z,37.17
2019-03-04T11:34:20.508Z,91.13
2019-03-04T11:37:03.716Z,60.07
2019-03-04T11:40:27.103Z,38.80
2019-03-04T11:43:18.489Z,36.80
2019-03-04T11:46:19.263Z,32.63
2019-03-04T11:49:23.769Z,56.50
2019-03-04T11:52:08.612Z,40.37
2019-03-04T11:55:05.895Z,37.57
2019-03-04T11:57:53.664Z,33.47
2019-03-04T12:00:53.571Z,37.40
2019-03-04T12:03:35.190Z,40.50
2019-03-04T12:06:21.689Z,43.60
2019-03-04T12:09:13.163Z,36.60
2019-03-04T12:12:06.155Z,57.00
2019-03-04T12:14:55.333Z,64.33
2019-03-04T12:17:52.467Z,44.43
2019-03-04T12:20:43.683Z,39.97
2019-03-04T12:23:39.549Z,34.20
2019-03-04T12:26:30.933Z,30.50
2019-03-04T12:29:50.832Z,30.80
2019-03-04T12:32:53.673Z,30.63
2019-03-04T12:35:43.444Z,36.63
2019-03-04T12:38:33.748Z,34.50
2019-03-04T12:41:46.188Z,31.57
2019-03-04T12:44:38.432Z,30.33
2019-03-04T12:47:47.740Z,32.97
2019-03-04T12:50:50.525Z,28.37
2019-03-04T12:53:44.319Z,29.70
2019-03-04T12:56:54.047Z,32.37
2019-03-04T13:00:26.084Z,30.70
2019-03-04T13:03:24.596Z,28.80
2019-03-04T13:06:24.835Z,74.93
2019-03-04T13:09:52.219Z,41.63
2019-03-04T13:12:52.794Z,31.43
2019-03-04T13:15:59.724Z,27.70
2019-03-04T13:19:29.256Z,30.33
2019-03-04T13:22:35.637Z,28.07
2019-03-04T13:25:43.306Z,28.60
2019-03-04T13:28:57.916Z,62.17
2019-03-04T13:32:20.251Z,42.73
2019-03-04T13:35:24.103Z,29.97
2019-03-04T13:38:02.744Z,28.93
2019-03-04T13:40:58.550Z,25.13
2019-03-04T13:44:17.671Z,25.00
2019-03-04T13:48:07.643Z,46.73
2019-03-04T13:51:40.996Z,55.77
2019-03-04T13:55:19.771Z,40.97
2019-03-04T13:58:47.779Z,32.57
2019-03-04T14:02:11.808Z,31.60
2019-03-04T14:05:25.037Z,30.77
2019-03-04T14:08:33.016Z,29.83
2019-03-04T14:12:03.672Z,29.87
2019-03-04T14:14:54.586Z,32.87
2019-03-04T14:18:16.114Z,32.20
2019-03-04T14:24:50.025Z,30.87
2019-03-04T14:28:19.138Z,28.87
2019-03-04T14:31:50.529Z,30.50
2019-03-04T14:34:58.852Z,31.73
2019-03-04T14:38:25.654Z,33.07
2019-03-04T14:42:05.635Z,30.43
2019-03-04T14:45:15.367Z,30.43
2019-03-04T14:48:50.396Z,59.27
2019-03-04T14:52:23.226Z,47.03
2019-03-04T14:55:43.549Z,35.77
2019-03-04T14:59:10.329Z,33.23
2019-03-04T15:02:13.737Z,31.07
2019-03-04T15:05:28.766Z,30.20
2019-03-04T15:08:42.565Z,30.93
2019-03-04T15:11:51.734Z,28.80
2019-03-04T15:16:33.394Z,34.10
2019-03-04T15:19:46.748Z,31.20
2019-03-04T15:23:13.659Z,31.23
2019-03-04T15:26:24.719Z,31.33
2019-03-04T15:29:38.301Z,30.10
2019-03-04T15:32:57.976Z,31.53
2019-03-04T15:36:26.402Z,31.47
2019-03-04T15:39:43.415Z,31.50
2019-03-04T15:43:03.091Z,32.53
2019-03-04T15:46:20.111Z,33.03
2019-03-04T15:49:22.556Z,32.57
2019-03-04T15:52:41.087Z,31.83
2019-03-04T15:55:41.138Z,34.10
2019-03-04T15:58:58.807Z,34.10
2019-03-04T16:02:01.981Z,31.73
2019-03-04T16:05:02.964Z,34.30
2019-03-04T16:08:44.408Z,32.13
2019-03-04T16:11:39.171Z,32.53
2019-03-04T16:14:57.927Z,33.23
2019-03-04T16:18:27.777Z,32.97
2019-03-04T16:21:32.241Z,31.33
2019-03-04T16:24:40.243Z,31.60
2019-03-04T16:27:44.097Z,32.60
2019-03-04T16:30:40.318Z,32.83
2019-03-04T16:33:48.306Z,32.37
2019-03-04T16:36:43.546Z,33.67
2019-03-04T16:39:42.227Z,31.90
2019-03-04T16:42:40.388Z,31.83
2019-03-04T16:45:36.948Z,36.03
2019-03-04T16:48:31.516Z,32.23
2019-03-04T16:51:19.521Z,31.80
2019-03-04T16:54:29.765Z,31.63
2019-03-04T16:57:27.294Z,31.97
2019-03-04T17:00:35.303Z,32.90
2019-03-04T17:03:31.963Z,32.77
2019-03-04T17:06:19.190Z,34.33
2019-03-04T17:09:07.103Z,33.87
2019-03-04T17:15:02.860Z,32.77
2019-03-04T17:17:46.926Z,38.70
2019-03-04T17:20:27.541Z,34.43
2019-03-04T17:23:14.654Z,35.37
2019-03-04T17:25:59.037Z,35.50
2019-03-04T17:28:41.921Z,33.90
2019-03-04T17:31:23.990Z,34.07
2019-03-04T17:34:03.596Z,34.87
2019-03-04T17:36:43.582Z,34.73
2019-03-04T17:39:26.978Z,34.97
2019-03-04T17:42:14.339Z,35.37
2019-03-04T17:45:02.997Z,35.23
2019-03-04T17:47:43.868Z,38.57
2019-03-04T17:50:49.894Z,34.93
2019-03-04T17:53:48.880Z,33.77
2019-03-04T17:56:35.864Z,34.77
2019-03-04T17:59:24.992Z,34.97
2019-03-04T18:02:10.477Z,35.50
2019-03-04T18:04:52.048Z,35.70
2019-03-04T18:07:37.187Z,36.50
2019-03-04T18:10:27.159Z,37.97
2019-03-04T18:13:10.495Z,37.50
2019-03-04T18:15:53.860Z,38.10
2019-03-04T18:18:34.713Z,35.53
2019-03-04T18:21:17.221Z,38.43
2019-03-04T18:24:05.753Z,36.90
2019-03-04T18:26:52.962Z,40.98
2019-03-04T18:30:13.542Z,41.07
2019-03-04T18:33:25.496Z,38.53
2019-03-04T18:36:38.319Z,38.93
2019-03-04T18:39:59.019Z,41.73
2019-03-04T18:43:12.838Z,42.97
2019-03-04T18:46:05.183Z,39.43
2019-03-04T18:49:10.960Z,39.97
2019-03-04T18:51:53.212Z,41.23
2019-03-04T18:54:34.262Z,40.60
2019-03-04T18:57:15.968Z,40.77
2019-03-04T18:59:59.791Z,39.57
2019-03-04T19:02:42.890Z,44.47
2019-03-04T19:05:27.086Z,42.00
2019-03-04T19:08:09.198Z,41.07
2019-03-04T19:10:49.812Z,39.30
2019-03-04T19:13:31.133Z,38.80
2019-03-04T19:16:16.130Z,40.13
2019-03-04T19:19:00.795Z,40.97
2019-03-04T19:21:41.333Z,39.43
2019-03-04T19:24:22.340Z,40.60
2019-03-04T19:27:10.125Z,42.43
2019-03-04T19:30:05.615Z,40.80
2019-03-04T19:32:45.901Z,46.53
2019-03-04T19:35:25.608Z,43.43
2019-03-04T19:38:08.255Z,44.45
2019-03-04T19:40:49.537Z,42.97
2019-03-04T19:43:32.942Z,45.90
2019-03-04T19:46:11.365Z,44.10
2019-03-04T19:48:49.712Z,43.60
2019-03-04T19:51:33.016Z,42.53
2019-03-04T19:54:16.289Z,42.60
2019-03-04T19:56:56.898Z,43.87
2019-03-04T19:59:40.469Z,42.67
2019-03-04T20:02:22.313Z,42.80
2019-03-04T20:05:02.501Z,44.03
2019-03-04T20:07:44.870Z,44.50
2019-03-04T20:10:22.325Z,45.83
2019-03-04T20:13:01.793Z,46.57
2019-03-04T20:15:39.156Z,52.17
2019-03-04T20:18:22.616Z,46.40
2019-03-04T20:21:06.582Z,46.17
2019-03-04T20:23:45.430Z,49.10
2019-03-04T20:26:28.310Z,48.43
2019-03-04T20:29:08.565Z,52.17
2019-03-04T20:31:50.369Z,49.57
2019-03-04T20:34:33.852Z,51.87
2019-03-04T20:37:13.348Z,52.30
2019-03-04T20:39:57.302Z,54.30
2019-03-04T20:42:36.195Z,55.60
2019-03-04T20:45:19.138Z,57.33
2019-03-04T20:48:01.679Z,57.50
2019-03-04T20:50:42.251Z,54.13
2019-03-04T20:53:25.747Z,60.90
2019-03-04T20:56:06.685Z,56.73
2019-03-04T20:58:52.437Z,55.97
2019-03-04T21:01:34.311Z,55.67
2019-03-04T21:04:13.853Z,57.03
2019-03-04T21:06:57.233Z,54.90
2019-03-04T21:09:37.729Z,54.77
2019-03-04T21:12:20.043Z,51.90
2019-03-04T21:15:02.911Z,53.13
2019-03-04T21:17:46.822Z,55.40
2019-03-04T21:20:26.006Z,55.63
2019-03-04T21:23:09.481Z,56.50
2019-03-04T21:26:01.090Z,55.43
2019-03-04T21:29:16.360Z,55.77
2019-03-04T21:32:02.131Z,54.97
2019-03-04T21:35:26.118Z,56.77
2019-03-04T21:38:10.309Z,55.17
2019-03-04T21:41:16.242Z,57.27
2019-03-04T21:44:34.572Z,55.10
2019-03-04T21:47:44.406Z,57.60
2019-03-04T21:50:26.700Z,51.57
2019-03-04T21:53:09.200Z,52.33
2019-03-04T21:55:55.098Z,55.23
2019-03-04T21:58:39.480Z,53.07
2019-03-04T22:01:28.617Z,53.13
2019-03-04T22:04:06.972Z,50.00
2019-03-04T22:06:46.841Z,55.23
2019-03-04T22:09:31.961Z,54.33
2019-03-04T22:12:18.490Z,54.33
2019-03-04T22:15:01.858Z,51.90
2019-03-04T22:17:41.126Z,51.87
2019-03-04T22:20:21.562Z,53.23
2019-03-04T22:23:02.798Z,56.60
2019-03-04T22:25:41.642Z,51.10
2019-03-04T22:28:21.109Z,50.53
2019-03-04T22:31:04.708Z,49.97
2019-03-04T22:33:46.289Z,51.43
2019-03-04T22:36:27.693Z,50.03
2019-03-04T22:39:10.326Z,52.37
2019-03-04T22:41:49.603Z,51.77
2019-03-04T22:44:38.646Z,50.93
2019-03-04T22:47:20.050Z,52.53
2019-03-04T22:50:02.912Z,55.23
2019-03-04T22:52:50.336Z,55.77
2019-03-04T22:55:30.846Z,52.97
2019-03-04T22:58:09.137Z,50.00
2019-03-04T23:01:37.361Z,52.57
2019-03-04T23:04:36.016Z,54.20
2019-03-04T23:07:39.119Z,53.87
2019-03-04T23:10:36.399Z,52.67
2019-03-04T23:13:41.997Z,50.23
2019-03-04T23:16:24.404Z,51.90
2019-03-04T23:19:05.982Z,52.63
2019-03-04T23:21:49.681Z,50.20
2019-03-04T23:24:32.240Z,59.25
2019-03-04T23:27:32.404Z,53.93
2019-03-04T23:29:59.376Z,144.30
2019-03-04T23:32:41.874Z,128.63
2019-03-04T23:35:18.930Z,79.93
2019-03-04T23:38:00.181Z,58.37
2019-03-04T23:40:44.546Z,49.97
2019-03-04T23:43:22.816Z,48.70
2019-03-04T23:46:05.128Z,49.60
2019-03-04T23:48:47.908Z,53.63
2019-03-04T23:51:29.213Z,57.10
2019-03-04T23:54:09.543Z,55.47
2019-03-04T23:56:49.226Z,50.70
2019-03-04T23:59:33.935Z,52.97
